createdAt,value
2022-08-17T00:01:27.239Z,22.11
2022-08-17T00:03:54.990Z,22.10
2022-08-17T00:06:28.563Z,22.09
2022-08-17T00:09:04.311Z,22.06
2022-08-17T00:11:40.274Z,22.02
2022-08-17T00:14:18.870Z,21.99
2022-08-17T00:16:56.869Z,21.96
2022-08-17T00:19:27.484Z,21.93
2022-08-17T00:22:31.610Z,21.91
2022-08-17T00:24:47.783Z,21.90
2022-08-17T00:27:15.022Z,21.88
2022-08-17T00:29:42.269Z,21.85
2022-08-17T00:33:11.612Z,21.84
2022-08-17T00:34:57.651Z,21.84
2022-08-17T00:37:24.991Z,21.83
2022-08-17T00:39:52.386Z,21.84
2022-08-17T00:42:20.422Z,21.85
2022-08-17T00:44:47.991Z,21.83
2022-08-17T00:47:15.292Z,21.82
2022-08-17T00:49:42.606Z,21.80
2022-08-17T00:52:21.628Z,21.79
2022-08-17T00:54:54.832Z,21.78
2022-08-17T00:57:35.028Z,21.78
2022-08-17T01:00:14.795Z,21.77
2022-08-17T01:02:46.859Z,21.76
2022-08-17T01:05:25.643Z,21.72
2022-08-17T01:07:54.943Z,21.70
2022-08-17T01:10:59.260Z,21.65
2022-08-17T01:13:41.289Z,21.64
2022-08-17T01:16:26.106Z,21.61
2022-08-17T01:19:03.203Z,21.62
2022-08-17T01:21:53.130Z,21.62
2022-08-17T01:26:48.550Z,21.62
2022-08-17T01:29:16.774Z,21.61
2022-08-17T01:31:55.598Z,21.62
2022-08-17T01:34:24.975Z,21.61
2022-08-17T01:37:11.773Z,21.59
2022-08-17T01:39:55.900Z,21.57
2022-08-17T01:42:42.320Z,21.55
2022-08-17T01:45:26.691Z,21.55
2022-08-17T01:47:56.303Z,21.52
2022-08-17T01:50:37.895Z,21.51
2022-08-17T01:53:21.213Z,21.51
2022-08-17T01:56:02.795Z,21.48
2022-08-17T01:58:30.241Z,21.46
2022-08-17T02:01:01.219Z,21.45
2022-08-17T02:03:31.499Z,21.44
2022-08-17T02:05:58.972Z,21.44
2022-08-17T02:08:37.123Z,21.42
2022-08-17T02:11:19.679Z,21.42
2022-08-17T02:13:57.885Z,21.42
2022-08-17T02:16:38.381Z,21.39
2022-08-17T02:19:10.749Z,21.39
2022-08-17T02:21:41.174Z,21.39
2022-08-17T02:24:58.160Z,21.36
2022-08-17T02:27:07.442Z,21.35
2022-08-17T02:29:34.769Z,21.30
2022-08-17T02:32:02.639Z,21.27
2022-08-17T02:34:30.076Z,21.25
2022-08-17T02:36:57.551Z,21.22
2022-08-17T02:39:24.866Z,21.18
2022-08-17T02:42:02.749Z,21.15
2022-08-17T02:44:38.932Z,21.13
2022-08-17T02:47:10.312Z,21.09
2022-08-17T02:49:38.211Z,21.07
2022-08-17T02:52:08.143Z,21.04
2022-08-17T02:54:41.702Z,21.03
2022-08-17T02:57:11.193Z,21.01
2022-08-17T02:59:44.258Z,21.00
2022-08-17T03:02:15.726Z,20.98
2022-08-17T03:04:43.218Z,20.96
2022-08-17T03:07:10.547Z,20.93
2022-08-17T03:09:37.951Z,20.92
2022-08-17T03:12:13.742Z,20.84
2022-08-17T03:14:43.240Z,20.81
2022-08-17T03:17:17.018Z,20.74
2022-08-17T03:19:45.162Z,20.70
2022-08-17T03:22:36.247Z,20.67
2022-08-17T03:24:59.710Z,20.66
2022-08-17T03:27:27.003Z,20.60
2022-08-17T03:29:55.135Z,20.51
2022-08-17T03:32:22.510Z,20.39
2022-08-17T03:34:50.024Z,20.32
2022-08-17T03:37:17.354Z,20.24
2022-08-17T03:39:44.691Z,20.20
2022-08-17T03:42:32.095Z,20.18
2022-08-17T03:45:02.301Z,20.13
2022-08-17T03:47:48.287Z,20.08
2022-08-17T03:50:36.851Z,20.05
2022-08-17T03:53:30.268Z,20.04
2022-08-17T03:56:24.436Z,20.04
2022-08-17T03:58:51.708Z,20.01
2022-08-17T04:01:19.210Z,20.00
2022-08-17T04:03:46.510Z,20.00
2022-08-17T04:06:15.170Z,19.97
2022-08-17T04:08:42.462Z,19.97
2022-08-17T04:11:10.467Z,19.94
2022-08-17T04:13:37.855Z,19.92
2022-08-17T04:16:05.625Z,19.89
2022-08-17T04:18:32.916Z,19.85
2022-08-17T04:21:01.092Z,19.84
2022-08-17T04:23:32.953Z,19.83
2022-08-17T04:26:04.372Z,19.80
2022-08-17T04:28:31.658Z,19.79
2022-08-17T04:30:59.709Z,19.79
2022-08-17T04:33:30.002Z,19.78
2022-08-17T04:36:03.265Z,19.82
2022-08-17T04:38:39.610Z,19.83
2022-08-17T04:41:27.174Z,19.81
2022-08-17T04:43:58.251Z,19.77
2022-08-17T04:46:36.412Z,19.71
2022-08-17T04:49:11.541Z,19.66
2022-08-17T04:51:56.820Z,19.67
2022-08-17T04:54:28.627Z,19.75
2022-08-17T04:56:56.756Z,19.84
2022-08-17T04:59:26.795Z,19.86
2022-08-17T05:01:54.691Z,19.87
2022-08-17T05:04:34.121Z,19.89
2022-08-17T05:07:04.567Z,19.90
2022-08-17T05:09:32.597Z,19.92
2022-08-17T05:12:04.323Z,19.97
2022-08-17T05:14:33.315Z,20.04
2022-08-17T05:17:07.046Z,20.14
2022-08-17T05:19:37.416Z,20.16
2022-08-17T05:22:06.533Z,20.18
2022-08-17T05:24:42.920Z,20.22
2022-08-17T05:27:18.878Z,20.23
2022-08-17T05:29:46.603Z,20.30
2022-08-17T05:32:39.480Z,20.34
2022-08-17T05:35:01.872Z,20.37
2022-08-17T05:37:29.225Z,20.41
2022-08-17T05:39:56.741Z,20.42
2022-08-17T05:42:24.167Z,20.49
2022-08-17T05:44:51.517Z,20.51
2022-08-17T05:47:19.093Z,20.50
2022-08-17T05:49:49.017Z,20.48
2022-08-17T05:53:02.916Z,20.45
2022-08-17T05:56:10.912Z,20.52
2022-08-17T05:59:29.087Z,20.53
2022-08-17T06:02:17.833Z,20.54
2022-08-17T06:05:43.787Z,20.56
2022-08-17T06:08:56.811Z,20.55
2022-08-17T06:12:27.895Z,20.57
2022-08-17T06:15:01.835Z,20.55
2022-08-17T06:17:31.123Z,20.58
2022-08-17T06:20:08.226Z,20.63
2022-08-17T06:22:49.544Z,20.70
2022-08-17T06:25:51.350Z,20.77
2022-08-17T06:28:46.806Z,20.86
2022-08-17T06:31:33.523Z,20.94
2022-08-17T06:34:09.099Z,21.04
2022-08-17T06:37:15.286Z,21.07
2022-08-17T06:40:39.972Z,21.12
2022-08-17T06:44:49.866Z,21.19
2022-08-17T06:47:29.368Z,21.21
2022-08-17T06:50:20.499Z,21.27
2022-08-17T06:53:36.464Z,21.35
2022-08-17T06:56:13.659Z,21.39
2022-08-17T06:58:44.970Z,21.42
2022-08-17T07:01:25.129Z,21.45
2022-08-17T07:04:11.564Z,21.45
2022-08-17T07:07:00.563Z,21.47
2022-08-17T07:09:38.646Z,21.56
2022-08-17T07:12:20.019Z,21.62
2022-08-17T07:15:41.839Z,21.62
2022-08-17T07:18:10.866Z,21.57
2022-08-17T07:20:48.012Z,21.56
2022-08-17T07:24:03.031Z,21.55
2022-08-17T07:26:30.390Z,21.55
2022-08-17T07:29:01.734Z,21.57
2022-08-17T07:31:33.504Z,21.58
2022-08-17T07:34:14.617Z,21.59
2022-08-17T07:36:43.105Z,21.60
2022-08-17T07:39:11.574Z,21.65
2022-08-17T07:41:57.491Z,21.65
2022-08-17T07:44:27.705Z,21.65
2022-08-17T07:47:15.112Z,21.71
2022-08-17T07:49:46.264Z,21.68
2022-08-17T07:52:50.372Z,21.69
2022-08-17T07:55:34.911Z,21.77
2022-08-17T07:58:03.401Z,21.81
2022-08-17T08:00:33.068Z,21.85
2022-08-17T08:03:20.302Z,21.94
2022-08-17T08:06:00.190Z,22.06
2022-08-17T08:08:40.721Z,22.11
2022-08-17T08:11:15.448Z,22.16
2022-08-17T08:13:45.567Z,22.23
2022-08-17T08:16:31.471Z,22.30
2022-08-17T08:19:03.082Z,22.24
2022-08-17T08:21:51.330Z,22.21
2022-08-17T08:25:02.956Z,22.23
2022-08-17T08:28:27.258Z,22.22
2022-08-17T08:31:42.406Z,22.20
2022-08-17T08:35:02.905Z,22.17
2022-08-17T08:38:07.680Z,22.14
2022-08-17T08:41:16.326Z,22.12
2022-08-17T08:45:00.687Z,22.16
2022-08-17T08:48:45.929Z,22.31
2022-08-17T08:51:59.620Z,22.50
2022-08-17T08:54:59.874Z,22.59
2022-08-17T08:57:40.118Z,22.64
2022-08-17T09:00:19.114Z,22.77
2022-08-17T09:03:20.073Z,22.88
2022-08-17T09:06:40.201Z,23.13
2022-08-17T09:09:49.696Z,23.39
2022-08-17T09:12:43.762Z,23.83
2022-08-17T09:15:27.496Z,24.06
2022-08-17T09:18:59.210Z,24.39
2022-08-17T09:21:48.399Z,24.75
2022-08-17T09:24:49.217Z,24.95
2022-08-17T09:27:33.259Z,24.84
2022-08-17T09:30:09.785Z,24.70
2022-08-17T09:32:41.367Z,24.62
2022-08-17T09:35:36.869Z,24.54
2022-08-17T09:38:28.024Z,24.44
2022-08-17T09:41:19.536Z,24.35
2022-08-17T09:44:39.314Z,24.25
2022-08-17T09:47:45.525Z,24.16
2022-08-17T09:51:05.299Z,24.16
2022-08-17T09:53:17.847Z,24.12
2022-08-17T09:56:43.793Z,24.07
2022-08-17T09:59:21.994Z,23.97
2022-08-17T10:02:25.653Z,23.92
2022-08-17T10:05:15.401Z,23.85
2022-08-17T10:08:24.402Z,23.77
2022-08-17T10:12:09.573Z,23.68
2022-08-17T10:15:13.922Z,23.45
2022-08-17T10:18:21.457Z,23.31
2022-08-17T10:21:29.862Z,22.95
2022-08-17T10:25:21.296Z,22.65
2022-08-17T10:27:52.669Z,22.34
2022-08-17T10:30:25.263Z,22.13
2022-08-17T10:33:07.050Z,21.96
2022-08-17T10:36:10.199Z,21.80
2022-08-17T10:38:49.518Z,21.67
2022-08-17T10:41:43.488Z,21.54
2022-08-17T10:44:37.483Z,21.40
2022-08-17T10:47:15.448Z,21.23
2022-08-17T10:49:53.859Z,21.07
2022-08-17T10:52:25.050Z,20.92
2022-08-17T10:54:57.933Z,20.81
2022-08-17T10:57:32.235Z,20.72
2022-08-17T11:00:03.661Z,20.61
2022-08-17T11:02:54.762Z,20.55
2022-08-17T11:05:43.675Z,20.53
2022-08-17T11:08:59.621Z,20.52
2022-08-17T11:12:00.727Z,20.57
2022-08-17T11:15:14.134Z,20.63
2022-08-17T11:19:09.960Z,20.69
2022-08-17T11:22:16.278Z,20.68
2022-08-17T11:24:53.583Z,20.68
2022-08-17T11:27:33.982Z,20.70
2022-08-17T11:30:43.459Z,20.72
2022-08-17T11:33:44.902Z,20.69
2022-08-17T11:36:18.012Z,20.64
2022-08-17T11:39:26.999Z,20.63
2022-08-17T11:43:27.335Z,20.71
2022-08-17T11:46:23.679Z,20.83
2022-08-17T11:49:54.593Z,20.86
2022-08-17T11:52:47.017Z,20.83
2022-08-17T11:55:44.442Z,20.78
2022-08-17T11:58:30.046Z,20.74
2022-08-17T12:01:06.174Z,20.73
2022-08-17T12:03:33.494Z,20.74
2022-08-17T12:06:10.861Z,20.67
2022-08-17T12:08:55.208Z,20.51
2022-08-17T12:12:13.319Z,20.44
2022-08-17T12:17:43.038Z,20.35
2022-08-17T12:20:24.025Z,20.22
2022-08-17T12:23:04.031Z,20.11
2022-08-17T12:26:02.902Z,20.04
2022-08-17T12:28:39.232Z,20.03
2022-08-17T12:31:16.777Z,19.97
2022-08-17T12:33:47.440Z,19.98
2022-08-17T12:36:24.725Z,19.97
2022-08-17T12:39:12.918Z,19.99
2022-08-17T12:41:48.214Z,19.98
2022-08-17T12:44:43.010Z,19.95
2022-08-17T12:47:22.535Z,20.01
2022-08-17T12:50:03.825Z,20.03
2022-08-17T12:52:33.093Z,20.05
2022-08-17T12:55:26.323Z,19.98
2022-08-17T12:58:00.919Z,19.84
2022-08-17T13:00:47.682Z,19.77
2022-08-17T13:03:35.698Z,19.75
2022-08-17T13:06:12.943Z,19.70
2022-08-17T13:08:48.080Z,19.66
2022-08-17T13:11:16.209Z,19.66
2022-08-17T13:13:54.149Z,19.65
2022-08-17T13:16:31.948Z,19.61
2022-08-17T13:19:16.815Z,19.58
2022-08-17T13:22:01.358Z,19.55
2022-08-17T13:24:38.269Z,19.51
2022-08-17T13:27:13.015Z,19.44
2022-08-17T13:29:51.358Z,19.37
2022-08-17T13:32:47.192Z,19.32
2022-08-17T13:35:49.915Z,19.26
2022-08-17T13:38:49.617Z,19.21
2022-08-17T13:41:55.402Z,19.27
2022-08-17T13:44:40.456Z,19.29
2022-08-17T13:47:21.880Z,19.29
2022-08-17T13:49:50.413Z,19.27
2022-08-17T13:52:39.556Z,19.30
2022-08-17T13:55:23.603Z,19.31
2022-08-17T13:58:03.984Z,19.33
2022-08-17T14:00:36.722Z,19.38
2022-08-17T14:03:05.696Z,19.38
2022-08-17T14:05:33.837Z,19.33
2022-08-17T14:08:06.861Z,19.28
2022-08-17T14:10:36.573Z,19.29
2022-08-17T14:13:07.395Z,19.34
2022-08-17T14:15:55.201Z,19.30
2022-08-17T14:18:52.022Z,19.29
2022-08-17T14:21:10.536Z,19.32
2022-08-17T14:23:38.456Z,19.26
2022-08-17T14:26:06.213Z,19.26
2022-08-17T14:28:33.518Z,19.28
2022-08-17T14:31:03.701Z,19.30
2022-08-17T14:33:31.056Z,19.35
2022-08-17T14:35:58.714Z,19.39
2022-08-17T14:38:26.159Z,19.43
2022-08-17T14:40:54.186Z,19.43
2022-08-17T14:43:21.539Z,19.46
2022-08-17T14:45:48.839Z,19.48
2022-08-17T14:48:16.202Z,19.51
2022-08-17T14:50:44.314Z,19.56
2022-08-17T14:53:16.254Z,19.60
2022-08-17T14:55:47.112Z,19.66
2022-08-17T14:58:15.984Z,19.70
2022-08-17T15:00:43.689Z,19.75
2022-08-17T15:03:11.802Z,19.79
2022-08-17T15:05:40.369Z,19.80
2022-08-17T15:08:08.087Z,19.81
2022-08-17T15:10:36.322Z,19.84
2022-08-17T15:13:04.132Z,19.91
2022-08-17T15:15:31.486Z,19.98
2022-08-17T15:18:00.399Z,20.05
2022-08-17T15:20:30.342Z,20.16
2022-08-17T15:22:59.418Z,20.35
2022-08-17T15:25:31.957Z,20.49
2022-08-17T15:28:01.131Z,20.49
2022-08-17T15:30:29.916Z,20.45
2022-08-17T15:33:00.629Z,20.37
2022-08-17T15:35:33.846Z,20.31
2022-08-17T15:38:12.065Z,20.28
2022-08-17T15:40:48.370Z,20.28
2022-08-17T15:43:32.651Z,20.26
2022-08-17T15:46:11.947Z,20.25
2022-08-17T15:48:43.441Z,20.30
2022-08-17T15:51:25.143Z,20.31
2022-08-17T15:54:04.234Z,20.34
2022-08-17T15:56:32.710Z,20.31
2022-08-17T15:59:00.384Z,20.30
2022-08-17T16:03:05.648Z,20.28
2022-08-17T16:04:30.233Z,20.24
2022-08-17T16:06:59.914Z,20.23
2022-08-17T16:09:27.875Z,20.18
2022-08-17T16:11:56.093Z,20.13
2022-08-17T16:14:33.933Z,20.10
2022-08-17T16:17:04.931Z,20.09
2022-08-17T16:19:52.584Z,20.10
2022-08-17T16:22:37.797Z,20.13
2022-08-17T16:25:18.745Z,20.13
2022-08-17T16:27:52.791Z,20.13
2022-08-17T16:30:26.182Z,20.11
2022-08-17T16:32:58.010Z,20.10
2022-08-17T16:35:27.355Z,20.12
2022-08-17T16:37:58.398Z,20.13
2022-08-17T16:40:33.100Z,20.12
2022-08-17T16:43:10.368Z,20.08
2022-08-17T16:45:40.353Z,20.03
2022-08-17T16:48:09.761Z,20.03
2022-08-17T16:50:37.580Z,20.06
2022-08-17T16:53:17.344Z,20.05
2022-08-17T16:55:48.119Z,20.04
2022-08-17T16:58:16.173Z,20.01
2022-08-17T17:00:45.657Z,20.00
2022-08-17T17:03:25.793Z,19.99
2022-08-17T17:06:46.838Z,19.95
2022-08-17T17:09:41.984Z,20.01
2022-08-17T17:12:19.214Z,20.09
2022-08-17T17:15:07.698Z,20.12
2022-08-17T17:17:39.534Z,20.18
2022-08-17T17:20:37.902Z,20.23
2022-08-17T17:23:09.439Z,20.24
2022-08-17T17:26:02.462Z,20.24
2022-08-17T17:29:07.961Z,20.23
2022-08-17T17:32:37.989Z,20.23
2022-08-17T17:35:43.529Z,20.23
2022-08-17T17:38:39.254Z,20.19
2022-08-17T17:41:46.860Z,20.18
2022-08-17T17:44:24.383Z,20.12
2022-08-17T17:46:58.737Z,20.11
2022-08-17T17:49:50.191Z,20.06
2022-08-17T17:53:04.142Z,20.05
2022-08-17T17:55:44.190Z,20.03
2022-08-17T17:58:47.778Z,20.00
2022-08-17T18:01:48.995Z,19.96
2022-08-17T18:04:48.401Z,19.92
2022-08-17T18:07:38.072Z,19.87
2022-08-17T18:10:56.394Z,19.83
2022-08-17T18:14:26.801Z,19.82
2022-08-17T18:17:00.452Z,19.80
2022-08-17T18:19:31.617Z,19.77
2022-08-17T18:22:15.152Z,19.76
2022-08-17T18:24:49.361Z,19.73
2022-08-17T18:27:40.517Z,19.70
2022-08-17T18:30:13.815Z,19.68
2022-08-17T18:32:46.499Z,19.65
2022-08-17T18:35:16.147Z,19.61
2022-08-17T18:37:51.508Z,19.60
2022-08-17T18:40:21.723Z,19.55
2022-08-17T18:43:02.827Z,19.51
2022-08-17T18:45:56.256Z,19.45
2022-08-17T18:48:52.739Z,19.39
2022-08-17T18:51:43.276Z,19.32
2022-08-17T18:54:19.057Z,19.28
2022-08-17T18:57:00.317Z,19.25
2022-08-17T18:59:50.015Z,19.21
2022-08-17T19:02:36.071Z,19.20
2022-08-17T19:06:28.278Z,19.15
2022-08-17T19:08:55.832Z,19.11
2022-08-17T19:11:34.134Z,19.08
2022-08-17T19:14:09.025Z,19.08
2022-08-17T19:16:53.281Z,19.04
2022-08-17T19:19:53.964Z,19.01
2022-08-17T19:22:59.084Z,18.97
2022-08-17T19:25:46.103Z,18.92
2022-08-17T19:28:21.629Z,18.90
2022-08-17T19:31:04.468Z,18.87
2022-08-17T19:33:32.480Z,18.85
2022-08-17T19:36:25.161Z,18.82
2022-08-17T19:39:18.306Z,18.81
2022-08-17T19:42:13.291Z,18.78
2022-08-17T19:45:19.331Z,18.74
2022-08-17T19:49:03.955Z,18.71
2022-08-17T19:51:43.864Z,18.64
2022-08-17T19:55:03.502Z,18.63
2022-08-17T19:58:02.259Z,18.59
2022-08-17T20:00:31.367Z,18.58
2022-08-17T20:03:08.888Z,18.58
2022-08-17T20:06:10.983Z,18.58
2022-08-17T20:09:23.967Z,18.54
2022-08-17T20:12:19.708Z,18.50
2022-08-17T20:14:58.416Z,18.45
2022-08-17T20:17:37.282Z,18.43
2022-08-17T20:20:47.024Z,18.44
2022-08-17T20:24:01.835Z,18.41
2022-08-17T20:27:14.448Z,18.39
2022-08-17T20:30:39.279Z,18.35
2022-08-17T20:33:40.676Z,18.30
2022-08-17T20:36:24.710Z,18.28
2022-08-17T20:38:58.988Z,18.28
2022-08-17T20:41:30.791Z,18.30
2022-08-17T20:43:58.738Z,18.32
2022-08-17T20:47:01.316Z,18.35
2022-08-17T20:49:44.609Z,18.38
2022-08-17T20:52:37.407Z,18.36
2022-08-17T20:55:05.625Z,18.38
2022-08-17T20:57:33.508Z,18.37
2022-08-17T21:00:19.187Z,18.34
2022-08-17T21:02:51.193Z,18.32
2022-08-17T21:05:59.777Z,18.32
2022-08-17T21:08:30.544Z,18.28
2022-08-17T21:11:01.147Z,18.29
2022-08-17T21:14:17.370Z,18.26
2022-08-17T21:17:29.649Z,18.24
2022-08-17T21:20:40.114Z,18.24
2022-08-17T21:23:57.824Z,18.21
2022-08-17T21:26:55.403Z,18.20
2022-08-17T21:29:32.874Z,18.20
2022-08-17T21:32:05.462Z,18.21
2022-08-17T21:34:43.937Z,18.22
2022-08-17T21:37:23.370Z,18.26
2022-08-17T21:40:23.650Z,18.28
2022-08-17T21:43:00.321Z,18.34
2022-08-17T21:45:41.626Z,18.38
2022-08-17T21:48:25.336Z,18.40
2022-08-17T21:51:20.597Z,18.40
2022-08-17T21:54:23.452Z,18.38
2022-08-17T21:56:51.231Z,18.38
2022-08-17T21:59:19.416Z,18.41
2022-08-17T22:02:34.920Z,18.43
2022-08-17T22:05:14.556Z,18.45
2022-08-17T22:08:02.222Z,18.44
2022-08-17T22:10:44.346Z,18.45
2022-08-17T22:13:22.487Z,18.48
2022-08-17T22:16:28.936Z,18.51
2022-08-17T22:18:59.323Z,18.52
2022-08-17T22:21:27.307Z,18.53
2022-08-17T22:24:24.630Z,18.53
2022-08-17T22:27:10.967Z,18.53
2022-08-17T22:29:58.235Z,18.54
2022-08-17T22:32:44.681Z,18.59
2022-08-17T22:35:41.164Z,18.63
2022-08-17T22:38:20.505Z,18.68
2022-08-17T22:41:51.115Z,18.69
2022-08-17T22:44:24.146Z,18.69
2022-08-17T22:47:16.347Z,18.68
2022-08-17T22:50:21.312Z,18.69
2022-08-17T22:53:33.298Z,18.67
2022-08-17T22:56:19.267Z,18.69
2022-08-17T22:59:18.608Z,18.67
2022-08-17T23:02:25.139Z,18.68
2022-08-17T23:05:16.658Z,18.70
2022-08-17T23:07:47.495Z,18.69
2022-08-17T23:10:15.674Z,18.68
2022-08-17T23:12:43.020Z,18.66
2022-08-17T23:15:17.649Z,18.66
2022-08-17T23:17:45.465Z,18.67
2022-08-17T23:20:17.522Z,18.67
2022-08-17T23:22:52.527Z,18.65
2022-08-17T23:25:32.371Z,18.65
2022-08-17T23:28:02.496Z,18.66
2022-08-17T23:30:35.593Z,18.69
2022-08-17T23:33:29.951Z,18.71
2022-08-17T23:35:58.864Z,18.72
2022-08-17T23:38:27.640Z,18.74
2022-08-17T23:41:00.011Z,18.77
2022-08-17T23:43:31.372Z,18.78
2022-08-17T23:46:03.655Z,18.79
2022-08-17T23:48:35.699Z,18.79
2022-08-17T23:51:22.619Z,18.81
2022-08-17T23:54:11.636Z,18.85
2022-08-17T23:56:46.697Z,18.88
2022-08-17T23:59:23.978Z,18.93
